createdAt,value
2018-12-14T00:05:19.129Z,100539.48
2018-12-14T00:08:24.372Z,100535.48
2018-12-14T00:11:27.561Z,100533.34
2018-12-14T00:14:30.801Z,100534.96
2018-12-14T00:17:35.172Z,100532.72
2018-12-14T00:20:38.361Z,100532.59
2018-12-14T00:23:41.572Z,100532.88
2018-12-14T00:26:44.830Z,100539.71
2018-12-14T00:29:48.529Z,100536.56
2018-12-14T00:32:51.753Z,100535.25
2018-12-14T00:35:55.145Z,100549.12
2018-12-14T00:38:58.485Z,100552.14
2018-12-14T00:42:01.753Z,100548.42
2018-12-14T00:45:05.281Z,100555.18
2018-12-14T00:48:08.527Z,100564.76
2018-12-14T00:51:11.807Z,100560.80
2018-12-14T00:54:15.050Z,100575.52
2018-12-14T00:57:18.311Z,100566.48
2018-12-14T01:00:21.537Z,100567.66
2018-12-14T01:03:24.973Z,100570.30
2018-12-14T01:06:28.363Z,100572.30
2018-12-14T01:09:31.628Z,100572.07
2018-12-14T01:12:37.115Z,100562.66
2018-12-14T01:15:40.451Z,100561.70
2018-12-14T01:18:43.756Z,100565.69
2018-12-14T01:21:46.988Z,100563.04
2018-12-14T01:24:50.184Z,100564.52
2018-12-14T01:27:53.418Z,100563.36
2018-12-14T01:30:56.642Z,100565.08
2018-12-14T01:33:59.898Z,100564.34
2018-12-14T01:37:03.137Z,100565.55
2018-12-14T01:40:07.511Z,100569.14
2018-12-14T01:43:10.757Z,100568.70
2018-12-14T01:46:13.992Z,100577.18
2018-12-14T01:49:17.277Z,100558.75
2018-12-14T01:52:21.757Z,100564.05
2018-12-14T01:55:25.125Z,100559.20
2018-12-14T01:58:28.324Z,100565.22
2018-12-14T02:01:31.597Z,100561.95
2018-12-14T02:04:34.896Z,100565.36
2018-12-14T02:07:38.275Z,100563.17
2018-12-14T02:10:41.510Z,100558.33
2018-12-14T02:13:44.751Z,100562.79
2018-12-14T02:16:47.948Z,100560.60
2018-12-14T02:19:51.549Z,100559.80
2018-12-14T02:22:54.807Z,100564.19
2018-12-14T02:25:58.088Z,100562.41
2018-12-14T02:29:01.456Z,100560.98
2018-12-14T02:32:05.041Z,100557.99
2018-12-14T02:35:08.464Z,100552.31
2018-12-14T02:38:11.709Z,100550.21
2018-12-14T02:41:14.934Z,100546.72
2018-12-14T02:44:19.310Z,100550.30
2018-12-14T02:47:22.639Z,100549.00
2018-12-14T02:50:25.884Z,100551.98
2018-12-14T02:53:29.121Z,100550.77
2018-12-14T02:56:32.325Z,100548.62
2018-12-14T02:59:35.576Z,100546.39
2018-12-14T03:02:38.854Z,100550.81
2018-12-14T03:05:42.188Z,100546.89
2018-12-14T03:08:45.561Z,100545.59
2018-12-14T03:11:48.806Z,100546.52
2018-12-14T03:14:52.038Z,100545.59
2018-12-14T03:17:55.264Z,100541.26
2018-12-14T03:20:58.541Z,100541.13
2018-12-14T03:24:01.759Z,100541.55
2018-12-14T03:27:05.011Z,100543.91
2018-12-14T03:30:09.580Z,100538.18
2018-12-14T03:33:12.945Z,100539.48
2018-12-14T03:36:16.208Z,100542.10
2018-12-14T03:39:19.426Z,100544.75
2018-12-14T03:42:22.657Z,100546.52
2018-12-14T03:45:25.875Z,100546.13
2018-12-14T03:48:29.110Z,100536.46
2018-12-14T03:51:32.374Z,100539.02
2018-12-14T03:54:35.621Z,100537.34
2018-12-14T03:57:38.834Z,100540.37
2018-12-14T04:00:42.480Z,100539.48
2018-12-14T04:03:45.707Z,100538.18
2018-12-14T04:06:48.925Z,100538.98
2018-12-14T04:09:52.131Z,100541.63
2018-12-14T04:12:55.367Z,100542.09
2018-12-14T04:15:58.564Z,100533.72
2018-12-14T04:19:01.785Z,100542.05
2018-12-14T04:22:05.048Z,100530.70
2018-12-14T04:25:08.443Z,100532.00
2018-12-14T04:28:11.755Z,100531.66
2018-12-14T04:31:15.001Z,100530.02
2018-12-14T04:34:18.233Z,100526.98
2018-12-14T04:37:21.468Z,100528.21
2018-12-14T04:40:24.696Z,100538.60
2018-12-14T04:43:27.940Z,100541.26
2018-12-14T04:46:31.294Z,100543.36
2018-12-14T04:49:34.992Z,100543.40
2018-12-14T04:52:38.229Z,100542.02
2018-12-14T04:55:41.471Z,100541.76
2018-12-14T04:58:44.733Z,100551.14
2018-12-14T05:01:48.002Z,100545.00
2018-12-14T05:04:51.251Z,100543.31
2018-12-14T05:07:54.645Z,100545.55
2018-12-14T05:10:57.864Z,100546.02
2018-12-14T05:14:01.125Z,100547.73
2018-12-14T05:17:04.476Z,100547.19
2018-12-14T05:20:08.226Z,100547.18
2018-12-14T05:23:11.474Z,100549.84
2018-12-14T05:26:14.705Z,100553.83
2018-12-14T05:29:17.920Z,100553.37
2018-12-14T05:32:21.152Z,100552.87
2018-12-14T05:35:24.385Z,100552.48
2018-12-14T05:38:27.608Z,100549.79
2018-12-14T05:41:31.386Z,100556.41
2018-12-14T05:44:34.901Z,100559.69
2018-12-14T05:47:38.253Z,100553.88
2018-12-14T05:50:41.481Z,100562.13
2018-12-14T05:53:44.800Z,100559.19
2018-12-14T05:56:48.158Z,100561.33
2018-12-14T05:59:51.437Z,100560.91
2018-12-14T06:02:54.803Z,100563.09
2018-12-14T06:05:58.064Z,100570.92
2018-12-14T06:09:01.272Z,100568.27
2018-12-14T06:12:06.989Z,100573.36
2018-12-14T06:15:10.477Z,100577.73
2018-12-14T06:18:13.828Z,100581.09
2018-12-14T06:21:17.166Z,100581.64
2018-12-14T06:24:20.401Z,100587.28
2018-12-14T06:27:23.632Z,100586.86
2018-12-14T06:30:26.873Z,100593.39
2018-12-14T06:33:30.097Z,100591.70
2018-12-14T06:36:33.319Z,100591.75
2018-12-14T06:39:36.716Z,100593.84
2018-12-14T06:42:40.028Z,100591.23
2018-12-14T06:45:43.270Z,100594.27
2018-12-14T06:48:46.568Z,100598.31
2018-12-14T06:51:49.876Z,100597.56
2018-12-14T06:54:53.167Z,100599.30
2018-12-14T06:57:56.450Z,100599.66
2018-12-14T07:00:59.717Z,100603.95
2018-12-14T07:04:02.959Z,100608.19
2018-12-14T07:07:06.233Z,100616.57
2018-12-14T07:10:12.301Z,100620.48
2018-12-14T07:13:21.711Z,100624.07
2018-12-14T07:16:20.896Z,100629.71
2018-12-14T07:19:24.113Z,100629.29
2018-12-14T07:22:27.330Z,100632.66
2018-12-14T07:25:30.746Z,100633.48
2018-12-14T07:28:34.276Z,100638.43
2018-12-14T07:31:37.529Z,100633.08
2018-12-14T07:34:40.745Z,100647.98
2018-12-14T07:37:44.215Z,100648.26
2018-12-14T07:40:47.445Z,100650.50
2018-12-14T07:43:50.704Z,100653.66
2018-12-14T07:46:54.058Z,100653.20
2018-12-14T07:49:57.339Z,100652.77
2018-12-14T07:53:00.596Z,100653.99
2018-12-14T07:56:03.877Z,100657.58
2018-12-14T07:59:07.565Z,100661.77
2018-12-14T08:02:10.916Z,100662.23
2018-12-14T08:05:14.157Z,100671.78
2018-12-14T08:08:17.399Z,100675.70
2018-12-14T08:11:20.616Z,100684.52
2018-12-14T08:14:23.849Z,100686.23
2018-12-14T08:17:27.096Z,100693.31
2018-12-14T08:20:30.309Z,100689.86
2018-12-14T08:23:33.584Z,100693.31
2018-12-14T08:26:36.833Z,100692.05
2018-12-14T08:29:40.066Z,100691.50
2018-12-14T08:32:43.297Z,100690.74
2018-12-14T08:35:46.548Z,100695.13
2018-12-14T08:38:49.789Z,100689.07
2018-12-14T08:41:53.006Z,100693.55
2018-12-14T08:44:56.264Z,100696.15
2018-12-14T08:48:00.028Z,100706.97
2018-12-14T08:51:09.973Z,100703.14
2018-12-14T08:54:13.228Z,100701.16
2018-12-14T08:57:17.660Z,100709.75
2018-12-14T09:00:20.908Z,100713.86
2018-12-14T09:03:24.129Z,100710.27
2018-12-14T09:06:27.358Z,100716.42
2018-12-14T09:09:30.681Z,100712.50
2018-12-14T09:12:33.944Z,100719.03
2018-12-14T09:15:37.152Z,100722.58
2018-12-14T09:18:40.392Z,100731.23
2018-12-14T09:21:43.745Z,100737.86
2018-12-14T09:24:47.001Z,100739.88
2018-12-14T09:27:50.260Z,100744.05
2018-12-14T09:30:53.481Z,100743.16
2018-12-14T09:33:56.724Z,100746.67
2018-12-14T09:36:59.953Z,100745.41
2018-12-14T09:40:04.061Z,100744.44
2018-12-14T09:43:07.289Z,100745.78
2018-12-14T09:46:10.669Z,100751.01
2018-12-14T09:49:13.900Z,100750.62
2018-12-14T09:52:17.168Z,100750.62
2018-12-14T09:55:20.682Z,100743.23
2018-12-14T09:58:24.584Z,100751.06
2018-12-14T10:01:27.820Z,100746.34
2018-12-14T10:04:31.033Z,100749.42
2018-12-14T10:07:34.281Z,100748.53
2018-12-14T10:10:38.784Z,100747.36
2018-12-14T10:13:42.201Z,100749.14
2018-12-14T10:16:45.426Z,100745.77
2018-12-14T10:19:48.664Z,100748.72
2018-12-14T10:22:51.908Z,100750.53
2018-12-14T10:25:55.295Z,100740.08
2018-12-14T10:28:58.773Z,100740.17
2018-12-14T10:32:02.225Z,100735.32
2018-12-14T10:35:07.801Z,100725.22
2018-12-14T10:38:11.151Z,100736.62
2018-12-14T10:41:14.408Z,100735.75
2018-12-14T10:44:17.669Z,100727.58
2018-12-14T10:47:20.911Z,100721.00
2018-12-14T10:50:24.184Z,100723.32
2018-12-14T10:53:27.412Z,100721.92
2018-12-14T10:56:30.688Z,100719.27
2018-12-14T10:59:33.954Z,100713.59
2018-12-14T11:02:39.237Z,100709.34
2018-12-14T11:05:42.480Z,100708.88
2018-12-14T11:08:45.721Z,100714.05
2018-12-14T11:11:48.965Z,100710.69
2018-12-14T11:14:52.173Z,100705.50
2018-12-14T11:17:55.402Z,100708.54
2018-12-14T11:20:58.632Z,100708.58
2018-12-14T11:24:02.000Z,100706.81
2018-12-14T11:27:06.355Z,100708.20
2018-12-14T11:30:10.854Z,100708.11
2018-12-14T11:33:14.109Z,100704.23
2018-12-14T11:36:17.336Z,100709.04
2018-12-14T11:39:20.565Z,100706.97
2018-12-14T11:42:23.789Z,100710.98
2018-12-14T11:45:27.032Z,100704.41
2018-12-14T11:48:30.302Z,100704.45
2018-12-14T11:51:33.536Z,100710.09
2018-12-14T11:54:36.917Z,100703.52
2018-12-14T11:57:40.149Z,100703.44
2018-12-14T12:00:43.876Z,100703.90
2018-12-14T12:03:47.734Z,100707.94
2018-12-14T12:06:50.949Z,100706.52
2018-12-14T12:09:54.194Z,100703.98
2018-12-14T12:12:57.392Z,100703.44
2018-12-14T12:16:00.634Z,100705.65
2018-12-14T12:19:03.865Z,100689.05
2018-12-14T12:22:07.133Z,100709.83
2018-12-14T12:25:10.439Z,100704.91
2018-12-14T12:28:13.657Z,100705.28
2018-12-14T12:31:16.944Z,100707.56
2018-12-14T12:34:20.433Z,100707.56
2018-12-14T12:37:23.684Z,100705.70
2018-12-14T12:40:26.889Z,100706.12
2018-12-14T12:43:30.461Z,100713.50
2018-12-14T12:46:33.725Z,100712.11
2018-12-14T12:49:36.948Z,100709.08
2018-12-14T12:52:40.175Z,100714.94
2018-12-14T12:55:43.400Z,100711.61
2018-12-14T12:58:46.768Z,100715.52
2018-12-14T13:01:51.200Z,100714.52
2018-12-14T13:04:54.752Z,100714.81
2018-12-14T13:07:58.005Z,100711.69
2018-12-14T13:11:01.339Z,100715.11
2018-12-14T13:14:04.568Z,100711.61
2018-12-14T13:17:07.788Z,100712.95
2018-12-14T13:20:11.025Z,100713.05
2018-12-14T13:23:14.276Z,100712.16
2018-12-14T13:26:17.493Z,100715.57
2018-12-14T13:29:20.784Z,100711.56
2018-12-14T13:32:24.044Z,100710.34
2018-12-14T13:35:27.732Z,100709.46
2018-12-14T13:38:31.009Z,100715.06
2018-12-14T13:41:34.282Z,100718.98
2018-12-14T13:44:37.912Z,100727.70
2018-12-14T13:47:41.119Z,100726.82
2018-12-14T13:50:44.476Z,100726.02
2018-12-14T13:53:47.692Z,100740.34
2018-12-14T13:56:50.961Z,100741.19
2018-12-14T13:59:54.181Z,100743.51
2018-12-14T14:02:57.440Z,100746.97
2018-12-14T14:06:00.676Z,100751.43
2018-12-14T14:09:05.442Z,100745.23
2018-12-14T14:12:10.833Z,100752.95
2018-12-14T14:15:20.675Z,100751.26
2018-12-14T14:18:19.384Z,100754.66
2018-12-14T14:21:23.286Z,100765.11
2018-12-14T14:24:26.553Z,100771.23
2018-12-14T14:27:29.984Z,100779.52
2018-12-14T14:30:33.223Z,100784.75
2018-12-14T14:33:37.732Z,100789.59
2018-12-14T14:36:40.988Z,100789.52
2018-12-14T14:39:44.295Z,100787.73
2018-12-14T14:42:47.600Z,100792.08
2018-12-14T14:45:50.830Z,100796.00
2018-12-14T14:48:54.174Z,100802.58
2018-12-14T14:51:57.572Z,100799.86
2018-12-14T14:55:02.162Z,100807.66
2018-12-14T14:58:05.441Z,100802.06
2018-12-14T15:01:08.661Z,100807.19
2018-12-14T15:04:11.912Z,100807.24
2018-12-14T15:07:15.199Z,100811.91
2018-12-14T15:10:18.465Z,100802.39
2018-12-14T15:16:36.928Z,100807.98
2018-12-14T15:19:40.149Z,100805.28
2018-12-14T15:22:43.348Z,100814.09
2018-12-14T15:25:46.629Z,100809.24
2018-12-14T15:28:49.853Z,100814.98
2018-12-14T15:31:53.301Z,100805.28
2018-12-14T15:34:56.585Z,100818.30
2018-12-14T15:37:59.814Z,100827.97
2018-12-14T15:41:03.061Z,100828.36
2018-12-14T15:44:06.517Z,100829.02
2018-12-14T15:47:09.885Z,100826.31
2018-12-14T15:50:13.395Z,100827.52
2018-12-14T15:53:16.656Z,100834.80
2018-12-14T15:56:19.912Z,100833.49
2018-12-14T15:59:23.164Z,100831.77
2018-12-14T16:02:26.412Z,100831.30
2018-12-14T16:05:29.774Z,100829.20
2018-12-14T16:08:33.138Z,100834.57
2018-12-14T16:11:36.407Z,100835.22
2018-12-14T16:14:39.882Z,100839.97
2018-12-14T16:17:43.232Z,100836.72
2018-12-14T16:20:46.616Z,100838.20
2018-12-14T16:23:50.086Z,100840.81
2018-12-14T16:26:53.469Z,100843.52
2018-12-14T16:29:56.961Z,100843.47
2018-12-14T16:33:00.361Z,100839.92
2018-12-14T16:36:03.686Z,100840.91
2018-12-14T16:39:07.712Z,100837.27
2018-12-14T16:42:13.054Z,100844.73
2018-12-14T16:45:16.381Z,100839.52
2018-12-14T16:48:19.877Z,100839.09
2018-12-14T16:51:23.111Z,100835.17
2018-12-14T16:54:26.388Z,100832.09
2018-12-14T16:57:29.672Z,100834.74
2018-12-14T17:00:33.208Z,100836.98
2018-12-14T17:03:36.650Z,100836.80
2018-12-14T17:06:39.967Z,100840.34
2018-12-14T17:09:43.308Z,100850.27
2018-12-14T17:12:46.557Z,100848.78
2018-12-14T17:15:49.801Z,100850.69
2018-12-14T17:18:53.049Z,100851.10
2018-12-14T17:21:56.348Z,100859.41
2018-12-14T17:24:59.827Z,100859.14
2018-12-14T17:28:03.089Z,100857.79
2018-12-14T17:31:06.344Z,100865.61
2018-12-14T17:34:09.852Z,100872.61
2018-12-14T17:37:14.373Z,100871.72
2018-12-14T17:40:17.633Z,100874.70
2018-12-14T17:43:22.900Z,100880.66
2018-12-14T17:46:26.797Z,100883.34
2018-12-14T17:49:30.800Z,100893.89
2018-12-14T17:52:35.003Z,100893.10
2018-12-14T17:55:38.248Z,100894.59
2018-12-14T17:58:41.483Z,100897.42
2018-12-14T18:01:44.762Z,100905.30
2018-12-14T18:04:48.057Z,100907.72
2018-12-14T18:07:51.324Z,100909.73
2018-12-14T18:10:54.584Z,100911.73
2018-12-14T18:13:57.836Z,100912.36
2018-12-14T18:17:01.070Z,100924.31
2018-12-14T18:20:05.252Z,100926.98
2018-12-14T18:23:08.501Z,100934.49
2018-12-14T18:26:11.729Z,100921.19
2018-12-14T18:29:14.973Z,100936.44
2018-12-14T18:32:18.226Z,100946.47
2018-12-14T18:35:21.459Z,100959.52
2018-12-14T18:38:24.706Z,100955.75
2018-12-14T18:41:27.993Z,100958.73
2018-12-14T18:44:31.265Z,100967.40
2018-12-14T18:47:34.524Z,100966.14
2018-12-14T18:50:37.861Z,100975.87
2018-12-14T18:57:02.582Z,100977.95
2018-12-14T19:00:08.361Z,100974.59
2018-12-14T19:03:12.168Z,100983.80
2018-12-14T19:06:15.420Z,100981.65
2018-12-14T19:09:18.765Z,100982.07
2018-12-14T19:12:22.150Z,100985.94
2018-12-14T19:15:25.643Z,100986.29
2018-12-14T19:18:28.889Z,100986.94
2018-12-14T19:21:32.263Z,100991.93
2018-12-14T19:24:35.567Z,101001.42
2018-12-14T19:27:38.845Z,100998.52
2018-12-14T19:30:42.265Z,101005.88
2018-12-14T19:33:45.493Z,101006.24
2018-12-14T19:36:48.794Z,101012.35
2018-12-14T19:39:52.150Z,101009.25
2018-12-14T19:42:55.388Z,101011.05
2018-12-14T19:45:58.777Z,101015.90
2018-12-14T19:49:02.078Z,101012.40
2018-12-14T19:52:06.270Z,101017.27
2018-12-14T19:55:09.554Z,101024.03
2018-12-14T19:58:12.804Z,101017.92
2018-12-14T20:01:16.093Z,101024.56
2018-12-14T20:04:19.326Z,101023.05
2018-12-14T20:07:25.535Z,101028.38
2018-12-14T20:10:28.842Z,101027.48
2018-12-14T20:13:32.109Z,101027.84
2018-12-14T20:16:35.484Z,101031.05
2018-12-14T20:19:38.765Z,101025.54
2018-12-14T20:22:42.165Z,101034.14
2018-12-14T20:25:45.404Z,101033.89
2018-12-14T20:28:48.808Z,101029.38
2018-12-14T20:31:52.042Z,101027.01
2018-12-14T20:34:55.716Z,101023.75
2018-12-14T20:37:59.324Z,101031.13
2018-12-14T20:41:02.616Z,101024.48
2018-12-14T20:44:05.886Z,101023.77
2018-12-14T20:47:09.184Z,101013.89
2018-12-14T20:50:12.697Z,101013.73
2018-12-14T20:53:15.941Z,100997.80
2018-12-14T20:56:19.228Z,101013.74
2018-12-14T20:59:22.500Z,101009.81
2018-12-14T21:02:25.740Z,101004.66
2018-12-14T21:05:29.000Z,100999.37
2018-12-14T21:08:32.225Z,101000.73
2018-12-14T21:11:35.521Z,100995.47
2018-12-14T21:14:39.036Z,101001.77
2018-12-14T21:17:42.276Z,100994.47
2018-12-14T21:20:45.535Z,100991.95
2018-12-14T21:23:48.788Z,100991.69
2018-12-14T21:26:52.032Z,100993.15
2018-12-14T21:29:55.278Z,100994.56
2018-12-14T21:32:58.521Z,100992.80
2018-12-14T21:36:01.900Z,100996.30
2018-12-14T21:39:06.513Z,100992.49
2018-12-14T21:42:11.863Z,100995.35
2018-12-14T21:45:15.254Z,100998.80
2018-12-14T21:48:18.479Z,100999.10
2018-12-14T21:51:21.713Z,100997.97
2018-12-14T21:54:24.980Z,101002.87
2018-12-14T21:57:28.378Z,100984.90
2018-12-14T22:00:31.613Z,100994.45
2018-12-14T22:03:34.860Z,100991.79
2018-12-14T22:06:38.096Z,100991.32
2018-12-14T22:09:41.393Z,100984.31
2018-12-14T22:12:45.634Z,100985.15
2018-12-14T22:15:48.884Z,100984.26
2018-12-14T22:18:52.108Z,100987.20
2018-12-14T22:21:55.362Z,100980.54
2018-12-14T22:24:59.050Z,100983.77
2018-12-14T22:28:02.296Z,100983.73
2018-12-14T22:31:05.545Z,100979.80
2018-12-14T22:34:08.791Z,100971.28
2018-12-14T22:37:12.031Z,100969.14
2018-12-14T22:40:15.357Z,100970.39
2018-12-14T22:43:18.815Z,100971.28
2018-12-14T22:46:22.069Z,100964.74
2018-12-14T22:49:25.317Z,100968.14
2018-12-14T22:52:28.661Z,100965.58
2018-12-14T22:55:31.901Z,100966.41
2018-12-14T22:58:35.150Z,100971.81
2018-12-14T23:01:38.389Z,100975.33
2018-12-14T23:04:41.730Z,100974.61
2018-12-14T23:07:46.103Z,100978.06
2018-12-14T23:10:49.372Z,100979.71
2018-12-14T23:13:52.655Z,100978.45
2018-12-14T23:16:55.909Z,100983.02
2018-12-14T23:19:59.156Z,100986.63
2018-12-14T23:23:02.425Z,100993.58
2018-12-14T23:26:05.660Z,100995.76
2018-12-14T23:29:10.020Z,100998.06
2018-12-14T23:32:13.250Z,100995.70
2018-12-14T23:35:16.487Z,101004.32
2018-12-14T23:38:19.729Z,100993.45
2018-12-14T23:41:22.990Z,100999.79
2018-12-14T23:44:26.248Z,101002.40
2018-12-14T23:47:29.468Z,100996.24
2018-12-14T23:50:32.874Z,100998.06
2018-12-14T23:53:36.085Z,100997.02
2018-12-14T23:56:39.331Z,100994.34
2018-12-14T23:59:42.694Z,100994.52
